Briefing drone pour La motte-servolex

Rechercher une autre localisation

Conditions de vol :


Nous sommes le : Jeudi 09 décembre 2021
Il est 23:05 UTC (00:05 LT)

Lever de soleil : 06:39 UTC (07:39 LT)
Coucher de soleil : 16:18 UTC (17:18 LT)

Météo

L'essentiel des conditions de vol

VIGILANCE MÉTÉO FRANCE - Savoie (73)
Vigilance Jaune : Avalanches / Neige-verglas
CARTE TEMSI
CARTES DES FRONTS
METAR de LFLB
LFLB 082300Z AUTO 00000KT 8000 -RA BKN011 BKN028 OVC035 03/03 Q1006

Date d'émission: 08/12/2021
Heure d'émission: 23:00 UTC
Vent: Calme
Visibilité horizontale: 8000 m
Plafond :
- Nuages morcelés à 1100ft (335m)
- Nuages morcelés à 2800ft (853m)
- Couvert à 3500ft (1067m)
Température: 3 °C
Point de rosée: 3 °C
Humidité: 100%
Pression (QNH): 1006 hPa
Conditions: Faible pluie
TAF de LFLB
LFLB 082005Z 0820/0915 CNL

Conditions prévues :

Heure d'émission : Bulletin éffectué le 08 à 20:00 UTC
Prévision : Valide du 08 a 20:00 UTC au 09 a 15:00 UTC
Nuages : à 0ft (0 m)
WEBCAM POUR LA MOTTE-SERVOLEX

Réglementation

Voler en sécurité

CARTES AERONAUTIQUE 1/500.000
CARTES VAC (LFLB)
SUP AIP




Chargement des AIP...
NOTAM (LA MOTTE-SERVOLEX + Terrain à proximité / FIR )




Chargement des NOTAMS...
CONTACT PREFECTURE 73


Avertissement : Les données mises à disposition sont indicatives. Oxygène Drone ne pourra être tenu responsable de dégâts causés aux biens et aux personnes.